Time;durP1;ratioP1;P1;durP2;ratioP2;P2;SDS_P1;SDS_P2;PMS_P1;PMS_P2;Temp;Humidity;BMP_temperature;BMP_pressure;BME280_temperature;BME280_humidity;BME280_pressure;Samples;Min_cycle;Max_cycle;Signal;HPM_P1;HPM_P2
2023/09/07 00:00:15;;;;;;;11.98;6.63;;;19.70;99.90;;;;;;5087574;28;20071;-83
2023/09/07 00:02:43;;;;;;;11.20;7.53;;;19.60;99.90;;;;;;5067710;28;20044;-81
2023/09/07 00:05:10;;;;;;;9.57;6.93;;;19.60;99.90;;;;;;5087190;28;20024;-85
2023/09/07 00:07:36;;;;;;;9.38;6.72;;;19.60;99.90;;;;;;5068013;28;20701;-85
2023/09/07 00:10:03;;;;;;;13.10;7.55;;;19.50;99.90;;;;;;5067588;28;20038;-80
2023/09/07 00:12:28;;;;;;;7.82;5.72;;;19.50;99.90;;;;;;5069734;28;20051;-83
2023/09/07 00:14:54;;;;;;;10.40;6.97;;;19.50;99.90;;;;;;5067867;28;21615;-84
2023/09/07 00:17:21;;;;;;;9.68;6.15;;;19.40;99.90;;;;;;5068852;28;20069;-81
2023/09/07 00:19:50;;;;;;;10.45;6.75;;;19.40;99.90;;;;;;5070170;28;20028;-83
2023/09/07 00:22:19;;;;;;;13.55;7.22;;;19.40;99.90;;;;;;5067950;28;20513;-83
2023/09/07 00:24:45;;;;;;;11.07;7.20;;;19.40;99.90;;;;;;5067884;28;20028;-82
2023/09/07 00:27:11;;;;;;;11.13;7.18;;;19.40;99.90;;;;;;5086655;28;20028;-81
2023/09/07 00:29:40;;;;;;;9.45;6.35;;;19.40;99.90;;;;;;5087675;28;20024;-84
2023/09/07 00:32:09;;;;;;;10.65;6.68;;;19.30;99.90;;;;;;5069085;28;20024;-82
2023/09/07 00:34:36;;;;;;;12.95;6.18;;;19.30;99.90;;;;;;5068184;28;20038;-84
2023/09/07 00:37:02;;;;;;;11.85;6.63;;;19.30;99.90;;;;;;5068948;28;20028;-81
2023/09/07 00:39:28;;;;;;;8.45;6.00;;;19.20;99.90;;;;;;5068987;28;20035;-84
2023/09/07 00:41:54;;;;;;;11.52;6.85;;;19.20;99.90;;;;;;5084740;28;20530;-82
2023/09/07 00:44:20;;;;;;;8.95;5.70;;;19.20;99.90;;;;;;5066755;28;20575;-81
2023/09/07 00:46:46;;;;;;;10.40;5.95;;;19.10;99.90;;;;;;5067460;28;20020;-83
2023/09/07 00:49:12;;;;;;;10.43;6.38;;;19.10;99.90;;;;;;5068293;28;20364;-83
2023/09/07 00:51:38;;;;;;;9.65;5.40;;;19.00;99.90;;;;;;5088114;28;20032;-81
2023/09/07 00:54:03;;;;;;;11.25;6.88;;;19.00;99.90;;;;;;5067277;28;20061;-81
2023/09/07 00:56:29;;;;;;;7.88;5.90;;;19.00;99.90;;;;;;5068031;28;20044;-82
2023/09/07 00:58:56;;;;;;;10.25;6.47;;;19.00;99.90;;;;;;5087327;28;20368;-80
2023/09/07 01:01:25;;;;;;;8.85;6.10;;;19.00;99.90;;;;;;5067446;28;20093;-80
2023/09/07 01:03:50;;;;;;;9.20;5.65;;;19.00;99.90;;;;;;5069394;28;20097;-82
2023/09/07 01:06:26;;;;;;;8.30;5.55;;;19.00;99.90;;;;;;5067590;28;20394;-80
2023/09/07 01:08:56;;;;;;;8.52;5.47;;;18.90;99.90;;;;;;5067682;28;20480;-81
2023/09/07 01:11:24;;;;;;;8.10;5.15;;;18.90;99.90;;;;;;5068575;28;20036;-80
2023/09/07 01:13:55;;;;;;;10.40;6.28;;;18.90;99.90;;;;;;5087656;28;20032;-83
2023/09/07 01:16:23;;;;;;;8.90;5.28;;;18.90;99.90;;;;;;5072036;28;20097;-83
2023/09/07 01:18:49;;;;;;;8.70;6.05;;;18.90;99.90;;;;;;5071682;28;20031;-82
2023/09/07 01:21:15;;;;;;;7.35;5.35;;;18.90;99.90;;;;;;5075595;28;20352;-81
2023/09/07 01:23:42;;;;;;;8.73;5.38;;;18.80;99.90;;;;;;5071538;28;20118;-80
2023/09/07 01:26:09;;;;;;;6.72;5.13;;;18.80;99.90;;;;;;5090855;28;20024;-80
2023/09/07 01:28:35;;;;;;;6.85;4.90;;;18.80;99.90;;;;;;5072738;28;20118;-80
2023/09/07 01:31:01;;;;;;;7.53;5.55;;;18.80;99.90;;;;;;5073043;28;20071;-81
2023/09/07 01:33:27;;;;;;;9.43;5.68;;;18.70;99.90;;;;;;5069991;28;20055;-81
2023/09/07 01:35:52;;;;;;;7.50;5.45;;;18.70;99.90;;;;;;5073007;28;20050;-79
2023/09/07 01:38:18;;;;;;;10.93;5.80;;;18.70;99.90;;;;;;5071157;28;20109;-81
2023/09/07 01:40:46;;;;;;;8.13;5.38;;;18.60;99.90;;;;;;5090557;28;20048;-78
2023/09/07 01:43:12;;;;;;;9.65;5.75;;;18.60;99.90;;;;;;5072342;28;20028;-79
2023/09/07 01:45:37;;;;;;;7.13;5.05;;;18.60;99.90;;;;;;5091867;28;20028;-80
2023/09/07 01:48:09;;;;;;;12.48;5.55;;;18.60;99.90;;;;;;5071751;28;20055;-79
2023/09/07 01:50:34;;;;;;;9.35;5.93;;;18.60;99.90;;;;;;5093814;28;20051;-80
2023/09/07 01:53:00;;;;;;;9.43;5.55;;;18.60;99.90;;;;;;5074449;28;20032;-79
2023/09/07 01:55:27;;;;;;;8.98;5.95;;;18.50;99.90;;;;;;5076349;28;21864;-80
2023/09/07 01:57:55;;;;;;;7.70;5.13;;;18.50;99.90;;;;;;5073744;28;20042;-82
2023/09/07 02:00:23;;;;;;;9.60;4.88;;;18.40;99.90;;;;;;5077472;28;20054;-79
2023/09/07 02:02:49;;;;;;;6.70;4.88;;;18.40;99.90;;;;;;5078064;28;20028;-81
2023/09/07 02:05:14;;;;;;;7.97;4.90;;;18.30;99.90;;;;;;5102790;28;20160;-78
2023/09/07 02:07:40;;;;;;;9.88;4.93;;;18.30;99.90;;;;;;5082589;28;20028;-78
2023/09/07 02:10:08;;;;;;;6.47;5.15;;;18.20;99.90;;;;;;5104798;28;20040;-77
2023/09/07 02:12:36;;;;;;;7.93;4.70;;;18.20;99.90;;;;;;5100061;28;20032;-80
2023/09/07 02:15:04;;;;;;;7.18;4.88;;;18.10;99.90;;;;;;5113188;28;20044;-77
2023/09/07 02:17:30;;;;;;;9.20;4.72;;;18.10;99.90;;;;;;5088214;28;20052;-77
2023/09/07 02:19:58;;;;;;;7.60;5.05;;;18.00;99.90;;;;;;5091676;28;20016;-76
2023/09/07 02:22:26;;;;;;;5.97;4.50;;;18.00;99.90;;;;;;5090285;28;20054;-76
2023/09/07 02:24:52;;;;;;;10.60;5.40;;;17.90;99.90;;;;;;5115794;28;20024;-76
2023/09/07 02:27:20;;;;;;;6.05;4.60;;;17.90;99.90;;;;;;5115754;28;20027;-75
2023/09/07 02:29:45;;;;;;;13.00;4.60;;;17.90;99.90;;;;;;5097102;28;20026;-76
2023/09/07 02:32:11;;;;;;;6.88;4.50;;;17.90;99.90;;;;;;5115528;28;20032;-75
2023/09/07 02:34:37;;;;;;;7.15;4.45;;;17.90;99.90;;;;;;5096159;28;20024;-75
2023/09/07 02:37:03;;;;;;;6.45;4.90;;;17.90;99.90;;;;;;5116059;28;20036;-75
2023/09/07 02:39:29;;;;;;;7.07;4.65;;;17.90;99.90;;;;;;5097408;28;20536;-75
2023/09/07 02:41:57;;;;;;;11.30;4.68;;;17.90;99.90;;;;;;5096744;28;20024;-77
2023/09/07 02:44:22;;;;;;;5.75;4.28;;;17.90;99.90;;;;;;5094840;28;20012;-75
2023/09/07 02:46:48;;;;;;;8.88;4.28;;;17.80;99.90;;;;;;5115419;28;20036;-75
2023/09/07 02:49:13;;;;;;;8.02;4.72;;;17.80;99.90;;;;;;5097297;28;20028;-75
2023/09/07 02:51:39;;;;;;;6.80;4.45;;;17.80;99.90;;;;;;5098157;28;20012;-75
2023/09/07 02:54:05;;;;;;;7.57;4.60;;;17.70;99.90;;;;;;5115117;28;20028;-75
2023/09/07 02:56:33;;;;;;;7.80;4.82;;;17.70;99.90;;;;;;5113386;28;20012;-75
2023/09/07 02:59:01;;;;;;;8.88;4.03;;;17.70;99.90;;;;;;5096156;28;20038;-75
2023/09/07 03:01:27;;;;;;;10.88;4.47;;;17.70;99.90;;;;;;5096459;28;20093;-75
2023/09/07 03:03:52;;;;;;;5.30;4.00;;;17.70;99.90;;;;;;5097019;28;20028;-75
2023/09/07 03:06:18;;;;;;;7.75;4.70;;;17.70;99.90;;;;;;5113897;28;20042;-75
2023/09/07 03:08:46;;;;;;;5.95;4.18;;;17.70;99.90;;;;;;5095613;28;20058;-75
2023/09/07 03:11:14;;;;;;;6.93;4.75;;;17.70;99.90;;;;;;5114317;28;20106;-74
2023/09/07 03:13:42;;;;;;;13.20;4.53;;;17.70;99.90;;;;;;5094726;28;20015;-75
2023/09/07 03:16:10;;;;;;;9.73;4.72;;;17.70;99.90;;;;;;5095504;28;20040;-76
2023/09/07 03:18:38;;;;;;;6.93;4.38;;;17.70;99.90;;;;;;5095930;28;20024;-75
2023/09/07 03:21:06;;;;;;;6.55;4.50;;;17.70;99.90;;;;;;5094969;28;20035;-75
2023/09/07 03:23:33;;;;;;;5.38;4.10;;;17.70;99.90;;;;;;5095637;28;20031;-75
2023/09/07 03:25:59;;;;;;;5.80;4.20;;;17.70;99.90;;;;;;5114470;28;20080;-75
2023/09/07 03:28:27;;;;;;;6.43;4.57;;;17.70;99.90;;;;;;5095107;28;20048;-75
2023/09/07 03:30:58;;;;;;;9.52;3.95;;;17.70;99.90;;;;;;5094646;28;20028;-75
2023/09/07 03:33:24;;;;;;;6.20;3.90;;;17.70;99.90;;;;;;5113986;28;20040;-75
2023/09/07 03:35:51;;;;;;;7.30;4.63;;;17.70;99.90;;;;;;5114497;28;20084;-75
2023/09/07 03:38:17;;;;;;;6.22;4.60;;;17.70;99.90;;;;;;5113451;28;20046;-75
2023/09/07 03:40:43;;;;;;;7.65;4.47;;;17.70;99.90;;;;;;5111931;28;20056;-75
2023/09/07 03:43:10;;;;;;;4.88;3.78;;;17.60;99.90;;;;;;5113731;28;20013;-75
2023/09/07 03:45:36;;;;;;;5.72;4.32;;;17.60;99.90;;;;;;5095768;28;20039;-76
2023/09/07 03:48:02;;;;;;;6.32;3.97;;;17.60;99.90;;;;;;5093592;28;20012;-75
2023/09/07 03:50:30;;;;;;;6.03;4.28;;;17.60;99.90;;;;;;5113154;28;21070;-75
2023/09/07 03:52:56;;;;;;;7.55;4.53;;;17.60;99.90;;;;;;5113623;28;20031;-75
2023/09/07 03:55:21;;;;;;;10.80;3.92;;;17.60;99.90;;;;;;5094127;28;20024;-75
2023/09/07 03:57:49;;;;;;;6.95;4.68;;;17.60;99.90;;;;;;5094068;28;20054;-75
2023/09/07 04:00:17;;;;;;;5.78;4.18;;;17.60;99.90;;;;;;5112712;28;20028;-76
2023/09/07 04:02:45;;;;;;;7.53;4.28;;;17.50;99.90;;;;;;5112580;28;20072;-75
2023/09/07 04:05:13;;;;;;;6.85;4.00;;;17.50;99.90;;;;;;5095034;28;20095;-75
2023/09/07 04:07:41;;;;;;;12.27;4.53;;;17.50;99.90;;;;;;5092745;28;20059;-75
2023/09/07 04:10:09;;;;;;;10.43;4.22;;;17.40;99.90;;;;;;5094701;28;20091;-75
2023/09/07 04:12:35;;;;;;;8.13;4.43;;;17.40;99.90;;;;;;5112956;28;21268;-75
2023/09/07 04:15:02;;;;;;;6.53;3.85;;;17.40;99.90;;;;;;5110964;28;20024;-76
2023/09/07 04:17:28;;;;;;;7.38;4.03;;;17.30;99.90;;;;;;5111612;28;20012;-75
2023/09/07 04:19:54;;;;;;;6.15;4.03;;;17.30;99.90;;;;;;5093421;28;20023;-75
2023/09/07 04:22:21;;;;;;;9.13;4.20;;;17.30;99.90;;;;;;5091601;28;20019;-74
2023/09/07 04:24:51;;;;;;;10.63;4.50;;;17.20;99.90;;;;;;5112221;28;20020;-75
2023/09/07 04:27:17;;;;;;;6.50;4.32;;;17.20;99.90;;;;;;5093781;28;20016;-75
2023/09/07 04:29:43;;;;;;;8.25;4.82;;;17.20;99.90;;;;;;5091051;28;20084;-75
2023/09/07 04:32:11;;;;;;;7.25;4.35;;;17.20;99.90;;;;;;5110772;28;20039;-75
2023/09/07 04:34:36;;;;;;;7.18;4.03;;;17.20;99.90;;;;;;5093216;28;20097;-75
2023/09/07 04:37:04;;;;;;;8.63;4.38;;;17.10;99.90;;;;;;5094484;28;20032;-75
2023/09/07 04:39:30;;;;;;;8.75;4.47;;;17.00;99.90;;;;;;5092589;28;20020;-75
2023/09/07 04:41:55;;;;;;;6.95;4.82;;;17.00;99.90;;;;;;5092250;28;20053;-75
2023/09/07 04:44:21;;;;;;;7.90;4.45;;;16.90;99.90;;;;;;5112022;28;20028;-75
2023/09/07 04:46:47;;;;;;;7.35;4.20;;;16.90;99.90;;;;;;5092665;28;20021;-75
2023/09/07 04:49:15;;;;;;;9.50;4.13;;;16.90;99.90;;;;;;5111905;28;20044;-75
2023/09/07 04:51:45;;;;;;;7.63;4.78;;;16.90;99.90;;;;;;5094503;28;20031;-75
2023/09/07 04:54:11;;;;;;;6.05;4.43;;;16.90;99.90;;;;;;5094705;28;20044;-75
2023/09/07 04:56:39;;;;;;;6.13;4.30;;;16.80;99.90;;;;;;5115484;28;20017;-75
2023/09/07 04:59:07;;;;;;;6.93;4.47;;;16.80;99.90;;;;;;5096622;28;20098;-75
2023/09/07 05:01:34;;;;;;;8.52;4.43;;;16.80;99.90;;;;;;5094185;28;20039;-75
2023/09/07 05:04:03;;;;;;;8.82;4.68;;;16.70;99.90;;;;;;5115552;28;20026;-75
2023/09/07 05:06:29;;;;;;;7.88;3.80;;;16.80;99.90;;;;;;5115825;28;20015;-75
2023/09/07 05:08:55;;;;;;;14.38;5.50;;;16.80;99.90;;;;;;5115281;28;20008;-75
2023/09/07 05:11:21;;;;;;;9.82;4.43;;;16.70;99.90;;;;;;5115254;28;20024;-75
2023/09/07 05:13:48;;;;;;;8.45;5.25;;;16.80;99.90;;;;;;5097242;28;20212;-75
2023/09/07 05:16:19;;;;;;;7.10;4.53;;;16.70;99.90;;;;;;5097538;28;20103;-74
2023/09/07 05:18:44;;;;;;;14.75;4.75;;;16.70;99.90;;;;;;5096439;28;20026;-74
2023/09/07 05:21:16;;;;;;;7.93;4.85;;;16.70;99.90;;;;;;5095539;28;20096;-75
2023/09/07 05:23:44;;;;;;;8.15;5.43;;;16.60;99.90;;;;;;5093678;28;20020;-76
2023/09/07 05:26:10;;;;;;;7.85;5.03;;;16.70;99.90;;;;;;5112346;28;20088;-75
2023/09/07 05:28:36;;;;;;;8.60;5.10;;;16.70;99.90;;;;;;5095971;28;20016;-74
2023/09/07 05:31:03;;;;;;;12.05;5.03;;;16.60;99.90;;;;;;5096824;28;21416;-75
2023/09/07 05:33:29;;;;;;;9.77;5.18;;;16.70;99.90;;;;;;5094845;28;20039;-74
2023/09/07 05:35:55;;;;;;;7.55;4.88;;;16.70;99.90;;;;;;5096275;28;20024;-75
2023/09/07 05:38:20;;;;;;;6.93;5.45;;;16.70;99.90;;;;;;5096975;28;20050;-75
2023/09/07 05:40:50;;;;;;;7.03;5.13;;;16.70;99.90;;;;;;5095972;28;20040;-75
2023/09/07 05:43:15;;;;;;;20.35;4.90;;;16.70;99.90;;;;;;5094480;28;20050;-75
2023/09/07 05:45:41;;;;;;;10.35;5.82;;;16.70;99.90;;;;;;5114933;28;20055;-75
2023/09/07 05:48:08;;;;;;;10.50;5.38;;;16.70;99.90;;;;;;5114779;28;20025;-75
2023/09/07 05:50:40;;;;;;;9.15;5.28;;;16.70;99.90;;;;;;5095669;28;20040;-75
2023/09/07 05:53:08;;;;;;;9.02;5.47;;;16.70;99.90;;;;;;5114857;28;20016;-76
2023/09/07 05:55:33;;;;;;;11.68;5.95;;;16.70;99.90;;;;;;5094445;28;20036;-74
2023/09/07 05:57:59;;;;;;;9.23;5.63;;;16.80;99.90;;;;;;5096754;28;20118;-76
2023/09/07 06:00:25;;;;;;;11.25;6.25;;;16.80;99.90;;;;;;5091706;28;20103;-75
2023/09/07 06:02:51;;;;;;;17.63;7.00;;;16.80;99.90;;;;;;5113259;28;20031;-75
2023/09/07 06:05:17;;;;;;;9.10;5.97;;;16.80;99.90;;;;;;5095111;28;20046;-75
2023/09/07 06:07:43;;;;;;;12.50;5.70;;;16.90;99.90;;;;;;5113680;28;20028;-75
2023/09/07 06:10:11;;;;;;;10.02;5.45;;;16.90;99.90;;;;;;5115053;28;20024;-75
2023/09/07 06:12:37;;;;;;;13.68;7.85;;;16.90;99.90;;;;;;5095969;28;20036;-75
2023/09/07 06:15:03;;;;;;;13.45;8.20;;;17.00;99.90;;;;;;5114334;28;20029;-75
2023/09/07 06:17:31;;;;;;;10.68;6.95;;;17.00;99.90;;;;;;5095192;28;20057;-74
2023/09/07 06:19:59;;;;;;;12.20;6.43;;;17.00;99.90;;;;;;5094521;28;20023;-75
2023/09/07 06:22:25;;;;;;;12.35;6.35;;;17.10;99.90;;;;;;5095559;28;20016;-77
2023/09/07 06:24:50;;;;;;;13.75;7.40;;;17.10;99.90;;;;;;5095292;28;20016;-75
2023/09/07 06:27:18;;;;;;;11.13;5.20;;;17.10;99.90;;;;;;5098017;28;20025;-75
2023/09/07 06:29:44;;;;;;;9.60;4.95;;;17.20;99.90;;;;;;5115351;28;20043;-75
2023/09/07 06:32:09;;;;;;;18.33;6.18;;;17.20;99.90;;;;;;5095228;28;20975;-75
2023/09/07 06:34:35;;;;;;;10.13;5.13;;;17.30;99.90;;;;;;5093540;28;20032;-77
2023/09/07 06:37:01;;;;;;;12.70;6.97;;;17.40;99.90;;;;;;5087278;28;20028;-77
2023/09/07 06:39:27;;;;;;;13.63;5.63;;;17.40;99.90;;;;;;5098320;28;20027;-80
2023/09/07 06:41:52;;;;;;;12.27;4.70;;;17.50;99.90;;;;;;5096428;28;20694;-80
2023/09/07 06:44:22;;;;;;;9.30;6.15;;;17.50;99.90;;;;;;5072656;28;20028;-80
2023/09/07 06:46:49;;;;;;;14.63;4.80;;;17.60;99.90;;;;;;5073422;28;20514;-80
2023/09/07 06:49:15;;;;;;;18.00;6.10;;;17.60;99.90;;;;;;5070936;28;20051;-82
2023/09/07 06:51:40;;;;;;;12.55;5.07;;;17.70;99.90;;;;;;5072337;28;20550;-79
2023/09/07 06:54:08;;;;;;;8.45;4.72;;;17.70;99.90;;;;;;5088800;28;20032;-79
2023/09/07 06:56:34;;;;;;;6.85;4.40;;;17.80;99.90;;;;;;5071510;28;20085;-80
2023/09/07 06:59:00;;;;;;;7.57;3.70;;;17.80;99.90;;;;;;5068308;28;20040;-82
2023/09/07 07:01:26;;;;;;;8.63;4.45;;;17.90;99.90;;;;;;5070293;28;20043;-82
2023/09/07 07:03:52;;;;;;;7.78;4.50;;;17.90;99.90;;;;;;5074900;28;20425;-81
2023/09/07 07:06:20;;;;;;;9.82;3.95;;;18.10;99.90;;;;;;5091802;28;20032;-82
2023/09/07 07:08:46;;;;;;;9.02;4.43;;;18.10;99.90;;;;;;5088749;28;20028;-81
2023/09/07 07:11:14;;;;;;;6.68;3.97;;;18.20;99.90;;;;;;5088329;28;20148;-84
2023/09/07 07:13:40;;;;;;;10.85;3.90;;;18.30;99.90;;;;;;5068343;28;20035;-82
2023/09/07 07:16:07;;;;;;;7.53;4.05;;;18.30;99.90;;;;;;5088016;28;20051;-83
2023/09/07 07:18:33;;;;;;;9.52;4.65;;;18.40;99.90;;;;;;5070386;28;20032;-82
2023/09/07 07:20:59;;;;;;;11.98;4.82;;;18.40;99.90;;;;;;5071499;28;20028;-84
2023/09/07 07:23:24;;;;;;;6.90;4.55;;;18.50;99.90;;;;;;5087643;28;20066;-82
2023/09/07 07:25:52;;;;;;;9.23;4.22;;;18.50;99.90;;;;;;5070065;28;20116;-83
2023/09/07 07:28:17;;;;;;;11.82;3.67;;;18.60;99.90;;;;;;5090177;28;20024;-80
2023/09/07 07:30:43;;;;;;;7.90;4.70;;;18.60;99.90;;;;;;5090053;28;20049;-84
2023/09/07 07:33:09;;;;;;;10.60;4.32;;;18.70;99.90;;;;;;5068801;28;20024;-84
2023/09/07 07:35:36;;;;;;;10.23;5.15;;;18.70;99.90;;;;;;5068812;28;20035;-82
2023/09/07 07:38:03;;;;;;;7.80;4.00;;;18.80;99.90;;;;;;5088486;28;20028;-84
2023/09/07 07:40:29;;;;;;;8.98;3.90;;;18.80;99.90;;;;;;5088374;28;20028;-81
2023/09/07 07:42:55;;;;;;;10.45;4.18;;;18.80;99.90;;;;;;5069139;28;20116;-83
2023/09/07 07:45:21;;;;;;;9.80;5.13;;;18.90;99.90;;;;;;5087773;28;20066;-83
2023/09/07 07:47:48;;;;;;;11.68;4.72;;;19.00;99.90;;;;;;5068999;28;20132;-81
2023/09/07 07:50:14;;;;;;;9.45;3.92;;;19.00;99.90;;;;;;5070033;28;20027;-84
2023/09/07 07:52:42;;;;;;;5.45;3.97;;;19.10;99.90;;;;;;5069333;28;20105;-84
2023/09/07 07:55:08;;;;;;;5.50;3.88;;;19.10;99.90;;;;;;5086939;28;20059;-84
2023/09/07 07:57:36;;;;;;;8.38;3.42;;;19.20;99.90;;;;;;5068692;28;20976;-82
2023/09/07 08:00:04;;;;;;;11.23;3.90;;;19.30;99.90;;;;;;5067536;28;20019;-84
2023/09/07 08:02:30;;;;;;;8.90;3.53;;;19.40;99.90;;;;;;5068021;28;21614;-84
2023/09/07 08:04:55;;;;;;;11.18;3.40;;;19.40;99.90;;;;;;5068531;28;20027;-83
2023/09/07 08:07:21;;;;;;;5.68;3.50;;;19.60;99.90;;;;;;5066564;28;20054;-82
2023/09/07 08:09:47;;;;;;;5.10;2.92;;;19.60;99.90;;;;;;5067491;28;20028;-84
2023/09/07 08:12:13;;;;;;;7.43;4.03;;;19.70;99.90;;;;;;5086625;28;20084;-82
2023/09/07 08:14:42;;;;;;;9.88;3.38;;;19.80;99.90;;;;;;5069278;28;22185;-83
2023/09/07 08:17:07;;;;;;;9.93;4.75;;;19.80;99.90;;;;;;5067668;28;20028;-82
2023/09/07 08:19:33;;;;;;;7.38;4.70;;;19.90;99.90;;;;;;5068520;28;20035;-82
2023/09/07 08:21:59;;;;;;;9.15;3.83;;;20.00;99.90;;;;;;5087092;28;20038;-82
2023/09/07 08:24:24;;;;;;;4.63;2.90;;;20.10;99.90;;;;;;5067466;28;20122;-81
2023/09/07 08:26:51;;;;;;;4.20;2.97;;;20.20;99.90;;;;;;5066893;28;20020;-83
2023/09/07 08:29:17;;;;;;;4.40;3.30;;;20.20;99.90;;;;;;5086851;28;20020;-83
2023/09/07 08:31:45;;;;;;;7.90;3.40;;;20.30;99.90;;;;;;5063609;28;20113;-84
2023/09/07 08:34:11;;;;;;;4.72;3.40;;;20.40;99.90;;;;;;5087433;28;20028;-83
2023/09/07 08:36:37;;;;;;;4.47;3.08;;;20.50;99.90;;;;;;5067160;28;20063;-83
2023/09/07 08:39:09;;;;;;;6.70;2.78;;;20.50;99.90;;;;;;5069224;28;20110;-82
2023/09/07 08:41:44;;;;;;;7.05;3.53;;;20.60;99.90;;;;;;5086218;28;20038;-82
2023/09/07 08:44:15;;;;;;;4.22;3.05;;;20.60;99.90;;;;;;5086829;28;20047;-84
2023/09/07 08:46:42;;;;;;;6.50;3.25;;;20.60;99.90;;;;;;5066403;28;20468;-83
2023/09/07 08:49:09;;;;;;;6.25;3.28;;;20.60;99.90;;;;;;5068495;28;20028;-81
2023/09/07 08:51:37;;;;;;;5.72;3.58;;;20.60;99.90;;;;;;5086624;28;20113;-83
2023/09/07 08:54:07;;;;;;;6.50;3.20;;;20.70;99.90;;;;;;5086176;28;20024;-82
2023/09/07 08:56:33;;;;;;;5.78;3.40;;;20.70;99.90;;;;;;5087608;28;20048;-82
2023/09/07 08:58:58;;;;;;;5.85;3.00;;;20.70;99.90;;;;;;5087199;28;20059;-84
2023/09/07 09:01:28;;;;;;;15.45;4.28;;;20.80;99.90;;;;;;5067324;28;20123;-82
2023/09/07 09:03:54;;;;;;;5.88;3.22;;;20.90;99.90;;;;;;5071606;28;20928;-83
2023/09/07 09:06:22;;;;;;;6.00;3.28;;;20.90;99.90;;;;;;5086204;28;20146;-83
2023/09/07 09:08:52;;;;;;;7.35;3.97;;;21.00;99.90;;;;;;5072051;28;20117;-81
2023/09/07 09:11:20;;;;;;;8.55;3.53;;;21.00;99.90;;;;;;5087462;28;20040;-82
2023/09/07 09:13:47;;;;;;;6.55;4.13;;;21.10;99.90;;;;;;5067682;28;20028;-80
2023/09/07 09:16:14;;;;;;;5.75;3.10;;;21.10;99.90;;;;;;5085553;28;20077;-81
2023/09/07 09:18:52;;;;;;;7.18;2.92;;;21.10;99.90;;;;;;5068848;28;20059;-82
2023/09/07 09:21:22;;;;;;;5.45;3.45;;;21.10;99.90;;;;;;5065529;28;20119;-82
2023/09/07 09:23:50;;;;;;;7.22;3.97;;;21.20;99.90;;;;;;5086243;28;20093;-82
2023/09/07 09:26:16;;;;;;;8.40;3.17;;;21.20;99.90;;;;;;5067813;28;20032;-83
2023/09/07 09:28:44;;;;;;;7.13;3.70;;;21.30;99.90;;;;;;5068888;28;20085;-82
2023/09/07 09:31:12;;;;;;;8.10;3.70;;;21.40;99.90;;;;;;5073489;28;20024;-83
2023/09/07 09:33:41;;;;;;;5.90;3.30;;;21.40;99.90;;;;;;5066735;28;20058;-81
2023/09/07 09:36:07;;;;;;;8.45;5.32;;;21.50;99.90;;;;;;5086373;28;20040;-83
2023/09/07 09:38:34;;;;;;;4.50;3.42;;;21.60;99.90;;;;;;5068706;28;20505;-83
2023/09/07 09:40:59;;;;;;;3.72;2.85;;;21.70;99.90;;;;;;5070973;28;20028;-83
2023/09/07 09:43:26;;;;;;;6.88;3.35;;;21.70;99.90;;;;;;5075566;28;20031;-80
2023/09/07 09:45:53;;;;;;;3.80;2.75;;;21.80;99.90;;;;;;5071867;28;20032;-80
2023/09/07 09:48:24;;;;;;;4.13;3.03;;;21.80;99.90;;;;;;5071468;28;20046;-83
2023/09/07 09:50:50;;;;;;;5.97;3.08;;;21.80;99.90;;;;;;5069962;28;20028;-82
2023/09/07 09:53:18;;;;;;;4.15;2.67;;;21.90;99.90;;;;;;5072084;28;20132;-83
2023/09/07 09:55:47;;;;;;;5.63;3.10;;;21.90;99.90;;;;;;5089420;28;20114;-79
2023/09/07 09:58:16;;;;;;;6.05;3.58;;;21.90;99.90;;;;;;5070261;28;20437;-83
2023/09/07 10:00:44;;;;;;;5.18;2.63;;;22.00;99.90;;;;;;5066658;28;20368;-83
2023/09/07 10:03:30;;;;;;;5.18;2.95;;;22.10;99.90;;;;;;5088495;28;20020;-83
2023/09/07 10:05:56;;;;;;;4.30;2.53;;;22.20;99.90;;;;;;5088814;28;20032;-79
2023/09/07 10:08:24;;;;;;;5.68;3.45;;;22.30;99.90;;;;;;5068206;28;20024;-82
2023/09/07 10:10:54;;;;;;;5.13;2.97;;;22.30;99.90;;;;;;5087859;28;20039;-82
2023/09/07 10:13:30;;;;;;;5.30;3.03;;;22.30;99.90;;;;;;5072537;28;21655;-82
2023/09/07 10:16:09;;;;;;;4.85;2.75;;;22.40;99.90;;;;;;5067058;28;20036;-78
2023/09/07 10:18:36;;;;;;;4.75;2.78;;;22.50;99.90;;;;;;5070310;28;20032;-82
2023/09/07 10:21:03;;;;;;;5.50;3.00;;;22.60;99.90;;;;;;5069997;28;20036;-82
2023/09/07 10:23:34;;;;;;;10.68;3.50;;;22.70;99.90;;;;;;5072883;28;20066;-83
2023/09/07 10:26:03;;;;;;;7.05;2.75;;;22.80;99.90;;;;;;5087137;28;20043;-82
2023/09/07 10:28:29;;;;;;;7.47;3.88;;;22.80;99.90;;;;;;5068705;28;20044;-82
2023/09/07 10:31:05;;;;;;;7.78;2.78;;;22.80;99.90;;;;;;5068805;28;20032;-81
2023/09/07 10:33:32;;;;;;;5.78;3.70;;;22.90;99.90;;;;;;5064603;28;20058;-80
2023/09/07 10:35:58;;;;;;;6.32;2.83;;;23.00;99.90;;;;;;5069694;28;20048;-82
2023/09/07 10:38:24;;;;;;;5.15;2.65;;;23.10;99.90;;;;;;5069288;28;20059;-82
2023/09/07 10:41:01;;;;;;;5.07;2.63;;;23.20;99.90;;;;;;5068917;28;20073;-82
2023/09/07 10:43:29;;;;;;;5.82;2.83;;;23.20;99.90;;;;;;5069817;28;20075;-83
2023/09/07 10:45:56;;;;;;;6.20;3.00;;;23.30;99.90;;;;;;5068587;28;20052;-82
2023/09/07 10:48:25;;;;;;;3.75;2.58;;;23.50;99.90;;;;;;5086813;28;20445;-81
2023/09/07 10:50:51;;;;;;;5.15;2.60;;;23.60;99.90;;;;;;5068803;28;20556;-83
2023/09/07 10:53:27;;;;;;;6.57;2.42;;;23.60;99.90;;;;;;5086930;28;20027;-80
2023/09/07 10:55:58;;;;;;;4.65;2.80;;;23.70;99.90;;;;;;5087377;28;20024;-80
2023/09/07 10:58:29;;;;;;;6.85;3.42;;;23.80;99.90;;;;;;5069807;28;20043;-82
2023/09/07 11:00:56;;;;;;;3.83;2.80;;;23.90;99.90;;;;;;5087873;28;20040;-81
2023/09/07 11:03:22;;;;;;;5.40;3.30;;;23.90;99.90;;;;;;5067940;28;20024;-81
2023/09/07 11:05:48;;;;;;;3.85;2.60;;;24.10;99.90;;;;;;5066770;28;20077;-80
2023/09/07 11:08:16;;;;;;;4.57;2.70;;;24.20;99.90;;;;;;5067287;28;20047;-80
2023/09/07 11:10:42;;;;;;;3.70;2.97;;;24.20;99.90;;;;;;5068528;28;20032;-81
2023/09/07 11:13:09;;;;;;;4.65;2.53;;;24.20;99.90;;;;;;5067269;28;20047;-81
2023/09/07 11:15:35;;;;;;;4.05;3.28;;;24.30;99.90;;;;;;5087177;28;20028;-81
2023/09/07 11:18:10;;;;;;;7.80;2.70;;;24.40;99.90;;;;;;5068308;28;20147;-82
2023/09/07 11:20:36;;;;;;;7.97;3.10;;;24.60;99.90;;;;;;5085924;28;20805;-81
2023/09/07 11:23:02;;;;;;;11.10;2.97;;;24.70;99.90;;;;;;5085743;28;20067;-81
2023/09/07 11:25:37;;;;;;;3.97;2.60;;;24.80;99.90;;;;;;5067675;28;20020;-82
2023/09/07 11:28:06;;;;;;;5.43;2.83;;;24.90;99.90;;;;;;5066775;28;20038;-79
2023/09/07 11:30:33;;;;;;;4.35;2.88;;;25.10;99.90;;;;;;5071201;28;20103;-79
2023/09/07 11:33:08;;;;;;;4.13;2.90;;;25.20;99.90;;;;;;5067741;28;21679;-81
2023/09/07 11:35:34;;;;;;;5.40;2.95;;;25.30;99.90;;;;;;5066314;28;20124;-80
2023/09/07 11:38:01;;;;;;;7.93;3.20;;;25.30;99.90;;;;;;5089825;28;20028;-80
2023/09/07 11:40:27;;;;;;;8.95;3.22;;;25.10;99.90;;;;;;5064876;28;20418;-81
2023/09/07 11:42:52;;;;;;;7.55;3.13;;;25.10;99.90;;;;;;5067893;28;20027;-82
2023/09/07 11:45:21;;;;;;;5.63;3.10;;;25.20;99.90;;;;;;5067799;28;20020;-81
2023/09/07 11:47:47;;;;;;;3.22;2.72;;;25.20;99.90;;;;;;5084931;28;20020;-81
2023/09/07 11:50:17;;;;;;;6.80;2.75;;;25.30;99.90;;;;;;5085610;28;20031;-80
2023/09/07 11:52:42;;;;;;;5.43;2.92;;;25.40;99.90;;;;;;5067568;28;20157;-81
2023/09/07 11:55:10;;;;;;;7.55;2.65;;;25.40;99.90;;;;;;5067154;28;20114;-82
2023/09/07 11:57:38;;;;;;;4.45;3.10;;;25.40;99.90;;;;;;5065546;28;20032;-81
2023/09/07 12:00:05;;;;;;;10.20;3.30;;;25.40;99.90;;;;;;5060755;28;20032;-80
2023/09/07 12:02:33;;;;;;;5.38;3.08;;;25.40;99.90;;;;;;5066492;28;20043;-80
2023/09/07 12:05:00;;;;;;;6.78;3.42;;;25.50;99.90;;;;;;5065466;28;20024;-80
2023/09/07 12:07:26;;;;;;;3.80;3.03;;;25.50;99.90;;;;;;5065518;28;20065;-82
2023/09/07 12:09:51;;;;;;;5.25;3.10;;;25.50;99.90;;;;;;5085042;28;20067;-81
2023/09/07 12:12:17;;;;;;;9.27;2.78;;;25.60;99.90;;;;;;5062141;28;20440;-80
2023/09/07 12:14:42;;;;;;;5.53;2.90;;;25.70;99.90;;;;;;5066759;28;20127;-81
2023/09/07 12:17:10;;;;;;;4.47;2.80;;;25.80;99.90;;;;;;5061076;28;20028;-82
2023/09/07 12:19:41;;;;;;;4.90;2.95;;;25.90;99.90;;;;;;5085248;28;20101;-81
2023/09/07 12:22:07;;;;;;;3.83;2.33;;;25.90;99.90;;;;;;5065820;28;20036;-82
2023/09/07 12:24:33;;;;;;;5.32;3.13;;;26.00;99.90;;;;;;5065709;28;20024;-82
2023/09/07 12:26:59;;;;;;;4.85;2.83;;;26.00;99.90;;;;;;5066366;28;20036;-78
2023/09/07 12:29:25;;;;;;;5.22;2.92;;;26.10;99.90;;;;;;5084474;28;20112;-81
2023/09/07 12:31:51;;;;;;;6.05;2.85;;;26.20;99.90;;;;;;5085003;28;20020;-81
2023/09/07 12:34:21;;;;;;;4.72;2.67;;;26.20;99.90;;;;;;5063862;28;20043;-82
2023/09/07 12:36:49;;;;;;;13.70;3.80;;;26.30;99.90;;;;;;5065812;28;20043;-81
2023/09/07 12:39:17;;;;;;;5.95;2.78;;;26.30;99.90;;;;;;5061472;28;20765;-79
2023/09/07 12:41:45;;;;;;;4.03;2.65;;;26.40;99.90;;;;;;5083432;28;20483;-82
2023/09/07 12:44:11;;;;;;;5.53;3.13;;;26.50;99.90;;;;;;5066465;28;20093;-82